sensor_id;sensor_type;location;lat;lon;timestamp;pressure;altitude;pressure_sealevel;temperature;humidity
77574;BME280;66710;48.868;9.080;2023-11-21T00:02:23;97455.47;;;6.60;100.00
77574;BME280;66710;48.868;9.080;2023-11-21T00:04:48;97451.72;;;6.67;100.00
77574;BME280;66710;48.868;9.080;2023-11-21T00:07:14;97450.66;;;6.68;100.00
77574;BME280;66710;48.868;9.080;2023-11-21T00:09:40;97452.00;;;6.70;100.00
77574;BME280;66710;48.868;9.080;2023-11-21T00:12:07;97453.13;;;6.74;100.00
77574;BME280;66710;48.868;9.080;2023-11-21T00:14:35;97451.81;;;6.82;100.00
77574;BME280;66710;48.868;9.080;2023-11-21T00:17:01;97447.19;;;6.82;100.00
77574;BME280;66710;48.868;9.080;2023-11-21T00:19:26;97449.91;;;6.82;100.00
77574;BME280;66710;48.868;9.080;2023-11-21T00:21:52;97446.41;;;6.82;100.00
77574;BME280;66710;48.868;9.080;2023-11-21T00:24:18;97452.34;;;6.84;100.00
77574;BME280;66710;48.868;9.080;2023-11-21T00:26:43;97442.34;;;6.84;100.00
77574;BME280;66710;48.868;9.080;2023-11-21T00:29:08;97444.50;;;6.82;100.00
77574;BME280;66710;48.868;9.080;2023-11-21T00:31:36;97442.34;;;6.84;100.00
77574;BME280;66710;48.868;9.080;2023-11-21T00:34:05;97443.69;;;6.82;100.00
77574;BME280;66710;48.868;9.080;2023-11-21T00:36:31;97438.81;;;6.84;100.00
77574;BME280;66710;48.868;9.080;2023-11-21T00:38:57;97442.63;;;6.83;100.00
77574;BME280;66710;48.868;9.080;2023-11-21T00:41:22;97443.19;;;6.85;100.00
77574;BME280;66710;48.868;9.080;2023-11-21T00:43:48;97441.28;;;6.86;100.00
77574;BME280;66710;48.868;9.080;2023-11-21T00:46:13;97438.78;;;6.79;100.00
77574;BME280;66710;48.868;9.080;2023-11-21T00:48:38;97442.34;;;6.84;100.00
77574;BME280;66710;48.868;9.080;2023-11-21T00:51:04;97436.13;;;6.84;100.00
77574;BME280;66710;48.868;9.080;2023-11-21T00:53:31;97448.63;;;6.90;100.00
77574;BME280;66710;48.868;9.080;2023-11-21T00:55:56;97448.91;;;6.94;100.00
77574;BME280;66710;48.868;9.080;2023-11-21T00:58:25;97439.69;;;6.95;100.00
77574;BME280;66710;48.868;9.080;2023-11-21T01:00:51;97442.13;;;6.96;100.00
77574;BME280;66710;48.868;9.080;2023-11-21T01:03:16;97444.59;;;6.98;100.00
77574;BME280;66710;48.868;9.080;2023-11-21T01:05:41;97443.50;;;6.94;100.00
77574;BME280;66710;48.868;9.080;2023-11-21T01:08:07;97444.59;;;6.98;100.00
77574;BME280;66710;48.868;9.080;2023-11-21T01:10:32;97442.44;;;7.00;100.00
77574;BME280;66710;48.868;9.080;2023-11-21T01:12:59;97447.84;;;7.00;100.00
77574;BME280;66710;48.868;9.080;2023-11-21T01:15:24;97449.25;;;7.08;100.00
77574;BME280;66710;48.868;9.080;2023-11-21T01:17:51;97435.94;;;7.01;100.00
77574;BME280;66710;48.868;9.080;2023-11-21T01:20:16;97438.63;;;6.96;100.00
77574;BME280;66710;48.868;9.080;2023-11-21T01:22:42;97443.75;;;6.92;100.00
77574;BME280;66710;48.868;9.080;2023-11-21T01:25:08;97440.50;;;6.90;100.00
77574;BME280;66710;48.868;9.080;2023-11-21T01:27:34;97439.91;;;6.88;100.00
77574;BME280;66710;48.868;9.080;2023-11-21T01:30:01;97439.38;;;6.86;100.00
77574;BME280;66710;48.868;9.080;2023-11-21T01:32:27;97444.78;;;6.86;100.00
77574;BME280;66710;48.868;9.080;2023-11-21T01:34:53;97438.06;;;6.89;100.00
77574;BME280;66710;48.868;9.080;2023-11-21T01:37:20;97442.06;;;6.86;100.00
77574;BME280;66710;48.868;9.080;2023-11-21T01:39:46;97434.78;;;6.87;100.00
77574;BME280;66710;48.868;9.080;2023-11-21T01:42:12;97443.97;;;6.86;100.00
77574;BME280;66710;48.868;9.080;2023-11-21T01:44:38;97442.63;;;6.88;100.00
77574;BME280;66710;48.868;9.080;2023-11-21T01:47:04;97441.56;;;6.89;100.00
77574;BME280;66710;48.868;9.080;2023-11-21T01:49:32;97432.63;;;6.89;100.00
77574;BME280;66710;48.868;9.080;2023-11-21T01:51:58;97433.69;;;6.88;100.00
77574;BME280;66710;48.868;9.080;2023-11-21T01:54:25;97439.91;;;6.88;100.00
77574;BME280;66710;48.868;9.080;2023-11-21T01:56:50;97435.84;;;6.86;100.00
77574;BME280;66710;48.868;9.080;2023-11-21T01:59:18;97440.72;;;6.83;100.00
77574;BME280;66710;48.868;9.080;2023-11-21T02:01:45;97439.94;;;6.93;100.00
77574;BME280;66710;48.868;9.080;2023-11-21T02:04:12;97439.16;;;6.98;100.00
77574;BME280;66710;48.868;9.080;2023-11-21T02:06:37;97442.44;;;7.00;100.00
77574;BME280;66710;48.868;9.080;2023-11-21T02:09:04;97440.22;;;6.97;100.00
77574;BME280;66710;48.868;9.080;2023-11-21T02:11:30;97434.81;;;6.97;100.00
77574;BME280;66710;48.868;9.080;2023-11-21T02:13:55;97438.41;;;7.08;100.00
77574;BME280;66710;48.868;9.080;2023-11-21T02:16:20;97441.66;;;7.05;100.00
77574;BME280;66710;48.868;9.080;2023-11-21T02:18:47;97440.25;;;7.02;100.00
77574;BME280;66710;48.868;9.080;2023-11-21T02:21:13;97438.94;;;7.05;100.00
77574;BME280;66710;48.868;9.080;2023-11-21T02:23:39;97439.22;;;7.08;100.00
77574;BME280;66710;48.868;9.080;2023-11-21T02:26:07;97434.63;;;7.09;100.00
77574;BME280;66710;48.868;9.080;2023-11-21T02:28:32;97430.53;;;7.01;100.00
77574;BME280;66710;48.868;9.080;2023-11-21T02:30:58;97434.34;;;7.10;100.00
77574;BME280;66710;48.868;9.080;2023-11-21T02:33:24;97430.28;;;7.13;100.00
77574;BME280;66710;48.868;9.080;2023-11-21T02:35:49;97426.22;;;7.10;100.00
77574;BME280;66710;48.868;9.080;2023-11-21T02:38:16;97424.63;;;7.14;100.00
77574;BME280;66710;48.868;9.080;2023-11-21T02:40:42;97431.63;;;7.05;100.00
77574;BME280;66710;48.868;9.080;2023-11-21T02:43:08;97434.31;;;7.05;100.00
77574;BME280;66710;48.868;9.080;2023-11-21T02:45:34;97431.84;;;6.98;100.00
77574;BME280;66710;48.868;9.080;2023-11-21T02:47:59;97434.31;;;7.05;100.00
77574;BME280;66710;48.868;9.080;2023-11-21T02:50:24;97424.00;;;7.02;100.00
77574;BME280;66710;48.868;9.080;2023-11-21T02:52:50;97419.16;;;6.99;100.00
77574;BME280;66710;48.868;9.080;2023-11-21T02:55:16;97421.00;;;6.93;100.00
77574;BME280;66710;48.868;9.080;2023-11-21T02:57:41;97431.81;;;6.93;100.00
77574;BME280;66710;48.868;9.080;2023-11-21T03:00:07;97428.56;;;6.91;100.00
77574;BME280;66710;48.868;9.080;2023-11-21T03:02:34;97427.25;;;6.94;100.00
77574;BME280;66710;48.868;9.080;2023-11-21T03:05:04;97422.88;;;6.88;100.00
77574;BME280;66710;48.868;9.080;2023-11-21T03:07:30;97420.97;;;6.88;100.00
77574;BME280;66710;48.868;9.080;2023-11-21T03:09:55;97423.41;;;6.90;100.00
77574;BME280;66710;48.868;9.080;2023-11-21T03:12:20;97424.47;;;6.83;100.00
77574;BME280;66710;48.868;9.080;2023-11-21T03:14:45;97432.91;;;6.87;100.00
77574;BME280;66710;48.868;9.080;2023-11-21T03:17:11;97434.25;;;6.90;100.00
77574;BME280;66710;48.868;9.080;2023-11-21T03:19:36;97431.78;;;6.88;100.00
77574;BME280;66710;48.868;9.080;2023-11-21T03:22:02;97436.16;;;6.89;100.00
77574;BME280;66710;48.868;9.080;2023-11-21T03:24:29;97437.22;;;6.88;100.00
77574;BME280;66710;48.868;9.080;2023-11-21T03:26:54;97426.41;;;6.93;100.00
77574;BME280;66710;48.868;9.080;2023-11-21T03:29:19;97423.66;;;6.88;100.00
77574;BME280;66710;48.868;9.080;2023-11-21T03:31:45;97432.59;;;6.83;100.00
77574;BME280;66710;48.868;9.080;2023-11-21T03:34:15;97433.97;;;6.86;100.00
77574;BME280;66710;48.868;9.080;2023-11-21T03:36:41;97434.75;;;6.81;100.00
77574;BME280;66710;48.868;9.080;2023-11-21T03:39:06;97437.50;;;6.87;100.00
77574;BME280;66710;48.868;9.080;2023-11-21T03:41:32;97441.53;;;6.84;100.00
77574;BME280;66710;48.868;9.080;2023-11-21T03:43:57;97443.44;;;6.83;100.00
77574;BME280;66710;48.868;9.080;2023-11-21T03:46:25;97453.16;;;6.79;100.00
77574;BME280;66710;48.868;9.080;2023-11-21T03:48:50;97442.53;;;6.68;100.00
77574;BME280;66710;48.868;9.080;2023-11-21T03:51:16;97446.03;;;6.68;100.00
77574;BME280;66710;48.868;9.080;2023-11-21T03:53:41;97442.28;;;6.69;100.00
77574;BME280;66710;48.868;9.080;2023-11-21T03:56:07;97445.22;;;6.68;100.00
77574;BME280;66710;48.868;9.080;2023-11-21T03:58:32;97451.97;;;6.65;100.00
77574;BME280;66710;48.868;9.080;2023-11-21T04:00:57;97453.09;;;6.69;100.00
77574;BME280;66710;48.868;9.080;2023-11-21T04:03:22;97457.66;;;6.69;100.00
77574;BME280;66710;48.868;9.080;2023-11-21T04:05:48;97452.84;;;6.71;100.00
77574;BME280;66710;48.868;9.080;2023-11-21T04:08:13;97451.72;;;6.67;100.00
77574;BME280;66710;48.868;9.080;2023-11-21T04:10:38;97450.09;;;6.66;100.00
77574;BME280;66710;48.868;9.080;2023-11-21T04:13:05;97448.47;;;6.64;100.00
77574;BME280;66710;48.868;9.080;2023-11-21T04:15:31;97450.06;;;6.60;100.00
77574;BME280;66710;48.868;9.080;2023-11-21T04:17:57;97463.84;;;6.59;100.00
77574;BME280;66710;48.868;9.080;2023-11-21T04:20:22;97450.31;;;6.59;100.00
77574;BME280;66710;48.868;9.080;2023-11-21T04:22:48;97456.78;;;6.58;100.00
77574;BME280;66710;48.868;9.080;2023-11-21T04:25:15;97457.84;;;6.52;100.00
77574;BME280;66710;48.868;9.080;2023-11-21T04:27:41;97462.44;;;6.51;100.00
77574;BME280;66710;48.868;9.080;2023-11-21T04:30:09;97470.81;;;6.50;100.00
77574;BME280;66710;48.868;9.080;2023-11-21T04:32:35;97470.56;;;6.51;100.00
77574;BME280;66710;48.868;9.080;2023-11-21T04:35:00;97469.19;;;6.49;100.00
77574;BME280;66710;48.868;9.080;2023-11-21T04:37:25;97472.13;;;6.47;100.00
77574;BME280;66710;48.868;9.080;2023-11-21T04:39:51;97471.09;;;6.48;100.00
77574;BME280;66710;48.868;9.080;2023-11-21T04:42:16;97470.00;;;6.49;100.00
77574;BME280;66710;48.868;9.080;2023-11-21T04:44:42;97468.63;;;6.47;100.00
77574;BME280;66710;48.868;9.080;2023-11-21T04:47:09;97467.53;;;6.42;100.00
77574;BME280;66710;48.868;9.080;2023-11-21T04:49:34;97469.66;;;6.40;100.00
77574;BME280;66710;48.868;9.080;2023-11-21T04:51:59;97465.06;;;6.41;100.00
77574;BME280;66710;48.868;9.080;2023-11-21T04:54:25;97469.41;;;6.42;100.00
77574;BME280;66710;48.868;9.080;2023-11-21T04:56:50;97471.03;;;6.43;100.00
77574;BME280;66710;48.868;9.080;2023-11-21T04:59:15;97471.03;;;6.43;100.00
77574;BME280;66710;48.868;9.080;2023-11-21T05:01:41;97469.66;;;6.40;100.00
77574;BME280;66710;48.868;9.080;2023-11-21T05:04:06;97472.34;;;6.40;100.00
77574;BME280;66710;48.868;9.080;2023-11-21T05:06:33;97466.09;;;6.35;100.00
77574;BME280;66710;48.868;9.080;2023-11-21T05:08:59;97463.41;;;6.35;100.00
77574;BME280;66710;48.868;9.080;2023-11-21T05:11:25;97467.44;;;6.32;100.00
77574;BME280;66710;48.868;9.080;2023-11-21T05:13:51;97468.75;;;6.30;100.00
77574;BME280;66710;48.868;9.080;2023-11-21T05:16:16;97476.56;;;6.26;100.00
77574;BME280;66710;48.868;9.080;2023-11-21T05:18:41;97479.53;;;6.24;100.00
77574;BME280;66710;48.868;9.080;2023-11-21T05:21:07;97477.38;;;6.21;100.00
77574;BME280;66710;48.868;9.080;2023-11-21T05:23:32;97485.19;;;6.18;100.00
77574;BME280;66710;48.868;9.080;2023-11-21T05:25:59;97484.28;;;6.12;100.00
77574;BME280;66710;48.868;9.080;2023-11-21T05:28:24;97487.59;;;6.14;100.00
77574;BME280;66710;48.868;9.080;2023-11-21T05:30:50;97486.78;;;6.19;100.00
77574;BME280;66710;48.868;9.080;2023-11-21T05:33:15;97496.56;;;6.20;100.00
77574;BME280;66710;48.868;9.080;2023-11-21T05:35:41;97500.00;;;6.15;100.00
77574;BME280;66710;48.868;9.080;2023-11-21T05:38:06;97501.72;;;6.21;100.00
77574;BME280;66710;48.868;9.080;2023-11-21T05:40:31;97503.56;;;6.21;100.00
77574;BME280;66710;48.868;9.080;2023-11-21T05:42:57;97509.06;;;6.31;100.00
77574;BME280;66710;48.868;9.080;2023-11-21T05:45:22;97505.31;;;6.32;100.00
77574;BME280;66710;48.868;9.080;2023-11-21T05:47:47;97507.47;;;6.35;100.00
77574;BME280;66710;48.868;9.080;2023-11-21T05:50:14;97507.81;;;6.39;100.00
77574;BME280;66710;48.868;9.080;2023-11-21T05:52:41;97508.28;;;6.31;100.00
77574;BME280;66710;48.868;9.080;2023-11-21T05:55:07;97515.03;;;6.33;100.00
77574;BME280;66710;48.868;9.080;2023-11-21T05:57:37;97511.03;;;6.36;100.00
77574;BME280;66710;48.868;9.080;2023-11-21T06:00:07;97515.09;;;6.38;100.00
77574;BME280;66710;48.868;9.080;2023-11-21T06:02:38;97517.59;;;6.45;100.00
77574;BME280;66710;48.868;9.080;2023-11-21T06:05:04;97509.88;;;6.32;100.00
77574;BME280;66710;48.868;9.080;2023-11-21T06:07:30;97516.94;;;6.33;100.00
77574;BME280;66710;48.868;9.080;2023-11-21T06:09:55;97523.94;;;6.29;100.00
77574;BME280;66710;48.868;9.080;2023-11-21T06:12:20;97530.16;;;6.29;100.00
77574;BME280;66710;48.868;9.080;2023-11-21T06:14:46;97536.06;;;6.26;100.00
77574;BME280;66710;48.868;9.080;2023-11-21T06:17:11;97533.84;;;6.18;100.00
77574;BME280;66710;48.868;9.080;2023-11-21T06:19:36;97538.97;;;6.14;100.00
77574;BME280;66710;48.868;9.080;2023-11-21T06:22:01;97537.81;;;6.10;100.00
77574;BME280;66710;48.868;9.080;2023-11-21T06:24:27;97541.59;;;6.09;100.00
77574;BME280;66710;48.868;9.080;2023-11-21T06:26:53;97541.97;;;6.18;100.00
77574;BME280;66710;48.868;9.080;2023-11-21T06:29:18;97533.84;;;6.18;100.00
77574;BME280;66710;48.868;9.080;2023-11-21T06:31:43;97538.13;;;6.14;100.00
77574;BME280;66710;48.868;9.080;2023-11-21T06:34:09;97539.28;;;6.50;100.00
77574;BME280;66710;48.868;9.080;2023-11-21T06:36:35;97541.00;;;6.02;100.00
77574;BME280;66710;48.868;9.080;2023-11-21T06:39:01;97556.75;;;6.37;100.00
77574;BME280;66710;48.868;9.080;2023-11-21T06:41:26;97551.22;;;6.00;100.00
77574;BME280;66710;48.868;9.080;2023-11-21T06:43:51;97557.16;;;5.97;100.00
77574;BME280;66710;48.868;9.080;2023-11-21T06:46:18;97563.13;;;5.99;100.00
77574;BME280;66710;48.868;9.080;2023-11-21T06:48:44;97560.69;;;5.97;100.00
77574;BME280;66710;48.868;9.080;2023-11-21T06:51:10;97563.03;;;6.16;100.00
77574;BME280;66710;48.868;9.080;2023-11-21T06:53:36;97564.66;;;5.95;100.00
77574;BME280;66710;48.868;9.080;2023-11-21T06:56:03;97566.31;;;6.18;100.00
77574;BME280;66710;48.868;9.080;2023-11-21T06:58:28;97565.69;;;5.88;100.00
77574;BME280;66710;48.868;9.080;2023-11-21T07:00:54;97573.22;;;5.86;100.00
77574;BME280;66710;48.868;9.080;2023-11-21T07:03:19;97583.16;;;5.81;100.00
77574;BME280;66710;48.868;9.080;2023-11-21T07:05:45;97584.22;;;5.80;100.00
77574;BME280;66710;48.868;9.080;2023-11-21T07:08:10;97581.97;;;5.94;100.00
77574;BME280;66710;48.868;9.080;2023-11-21T07:10:36;97589.38;;;6.03;100.00
77574;BME280;66710;48.868;9.080;2023-11-21T07:13:02;97588.03;;;6.01;100.00
77574;BME280;66710;48.868;9.080;2023-11-21T07:15:27;97584.09;;;6.14;100.00
77574;BME280;66710;48.868;9.080;2023-11-21T07:17:53;97594.78;;;6.25;100.00
77574;BME280;66710;48.868;9.080;2023-11-21T07:20:19;97597.22;;;6.27;100.00
77574;BME280;66710;48.868;9.080;2023-11-21T07:22:45;97599.31;;;6.20;100.00
77574;BME280;66710;48.868;9.080;2023-11-21T07:25:10;97599.69;;;6.29;100.00
77574;BME280;66710;48.868;9.080;2023-11-21T07:27:36;97608.00;;;6.22;100.00
77574;BME280;66710;48.868;9.080;2023-11-21T07:30:03;97605.91;;;6.29;100.00
77574;BME280;66710;48.868;9.080;2023-11-21T07:32:30;97609.63;;;6.23;100.00
77574;BME280;66710;48.868;9.080;2023-11-21T07:34:56;97615.06;;;6.28;100.00
77574;BME280;66710;48.868;9.080;2023-11-21T07:37:23;97617.63;;;6.40;100.00
77574;BME280;66710;48.868;9.080;2023-11-21T07:39:48;97616.63;;;6.46;100.00
77574;BME280;66710;48.868;9.080;2023-11-21T07:42:13;97624.81;;;6.51;100.00
77574;BME280;66710;48.868;9.080;2023-11-21T07:44:39;97626.97;;;6.54;100.00
77574;BME280;66710;48.868;9.080;2023-11-21T07:47:04;97630.03;;;6.63;100.00
77574;BME280;66710;48.868;9.080;2023-11-21T07:49:30;97624.63;;;6.63;100.00
77574;BME280;66710;48.868;9.080;2023-11-21T07:51:55;97627.84;;;6.60;100.00
77574;BME280;66710;48.868;9.080;2023-11-21T07:54:21;97629.78;;;6.64;100.00
77574;BME280;66710;48.868;9.080;2023-11-21T07:56:46;97632.91;;;6.78;100.00
77574;BME280;66710;48.868;9.080;2023-11-21T07:59:14;97635.66;;;6.83;100.00
77574;BME280;66710;48.868;9.080;2023-11-21T08:01:39;97630.38;;;6.72;100.00
77574;BME280;66710;48.868;9.080;2023-11-21T08:04:05;97630.69;;;6.75;100.00
77574;BME280;66710;48.868;9.080;2023-11-21T08:06:31;97634.22;;;6.76;100.00
77574;BME280;66710;48.868;9.080;2023-11-21T08:08:58;97639.84;;;6.69;100.00
77574;BME280;66710;48.868;9.080;2023-11-21T08:11:23;97642.63;;;6.74;100.00
77574;BME280;66710;48.868;9.080;2023-11-21T08:13:48;97646.69;;;6.77;100.00
77574;BME280;66710;48.868;9.080;2023-11-21T08:16:14;97645.44;;;6.90;100.00
77574;BME280;66710;48.868;9.080;2023-11-21T08:18:40;97648.69;;;6.92;100.00
77574;BME280;66710;48.868;9.080;2023-11-21T08:21:06;97652.16;;;6.82;100.00
77574;BME280;66710;48.868;9.080;2023-11-21T08:23:33;97652.28;;;6.97;100.00
77574;BME280;66710;48.868;9.080;2023-11-21T08:25:59;97658.72;;;6.91;100.00
77574;BME280;66710;48.868;9.080;2023-11-21T08:28:24;97648.88;;;7.12;100.00
77574;BME280;66710;48.868;9.080;2023-11-21T08:30:51;97654.56;;;7.11;100.00
77574;BME280;66710;48.868;9.080;2023-11-21T08:33:17;97655.00;;;6.97;100.00
77574;BME280;66710;48.868;9.080;2023-11-21T08:35:42;97659.06;;;7.00;100.00
77574;BME280;66710;48.868;9.080;2023-11-21T08:38:08;97655.25;;;6.96;100.00
77574;BME280;66710;48.868;9.080;2023-11-21T08:40:35;97654.91;;;6.87;100.00
77574;BME280;66710;48.868;9.080;2023-11-21T08:43:00;97655.75;;;6.93;100.00
77574;BME280;66710;48.868;9.080;2023-11-21T08:45:25;97658.47;;;6.93;100.00
77574;BME280;66710;48.868;9.080;2023-11-21T08:47:51;97663.88;;;6.93;100.00
77574;BME280;66710;48.868;9.080;2023-11-21T08:50:16;97666.19;;;7.06;100.00
77574;BME280;66710;48.868;9.080;2023-11-21T08:52:42;97671.84;;;7.05;100.00
77574;BME280;66710;48.868;9.080;2023-11-21T08:55:08;97675.38;;;7.05;100.00
77574;BME280;66710;48.868;9.080;2023-11-21T08:57:37;97676.50;;;7.14;100.00
77574;BME280;66710;48.868;9.080;2023-11-21T09:00:03;97674.69;;;7.20;100.00
77574;BME280;66710;48.868;9.080;2023-11-21T09:02:32;97687.31;;;7.09;100.00
77574;BME280;66710;48.868;9.080;2023-11-21T09:04:59;97681.16;;;6.87;100.00
77574;BME280;66710;48.868;9.080;2023-11-21T09:07:28;97686.06;;;6.90;100.00
77574;BME280;66710;48.868;9.080;2023-11-21T09:09:53;97685.25;;;6.89;100.00
77574;BME280;66710;48.868;9.080;2023-11-21T09:12:20;97684.25;;;7.00;100.00
77574;BME280;66710;48.868;9.080;2023-11-21T09:14:46;97680.19;;;6.98;100.00
77574;BME280;66710;48.868;9.080;2023-11-21T09:17:11;97686.66;;;6.97;100.00
77574;BME280;66710;48.868;9.080;2023-11-21T09:19:37;97689.66;;;7.00;100.00
77574;BME280;66710;48.868;9.080;2023-11-21T09:22:03;97686.88;;;6.90;100.00
77574;BME280;66710;48.868;9.080;2023-11-21T09:24:30;97695.09;;;7.00;100.00
77574;BME280;66710;48.868;9.080;2023-11-21T09:26:55;97703.50;;;7.04;100.00
77574;BME280;66710;48.868;9.080;2023-11-21T09:29:21;97702.16;;;7.01;100.00
77574;BME280;66710;48.868;9.080;2023-11-21T09:31:47;97703.25;;;7.06;100.00
77574;BME280;66710;48.868;9.080;2023-11-21T09:34:12;97710.38;;;7.12;100.00
77574;BME280;66710;48.868;9.080;2023-11-21T09:36:40;97711.97;;;7.08;100.00
77574;BME280;66710;48.868;9.080;2023-11-21T09:39:06;97717.38;;;7.08;100.00
77574;BME280;66710;48.868;9.080;2023-11-21T09:41:40;97714.75;;;7.18;100.00
77574;BME280;66710;48.868;9.080;2023-11-21T09:44:13;97717.69;;;7.16;100.00
77574;BME280;66710;48.868;9.080;2023-11-21T09:46:41;97721.47;;;7.10;100.00
77574;BME280;66710;48.868;9.080;2023-11-21T09:49:09;97720.47;;;7.21;100.00
77574;BME280;66710;48.868;9.080;2023-11-21T09:51:39;97718.34;;;7.29;100.00
77574;BME280;66710;48.868;9.080;2023-11-21T09:54:07;97721.19;;;7.12;100.00
77574;BME280;66710;48.868;9.080;2023-11-21T09:56:34;97720.41;;;7.16;100.00
77574;BME280;66710;48.868;9.080;2023-11-21T09:59:01;97722.88;;;7.18;100.00
77574;BME280;66710;48.868;9.080;2023-11-21T10:01:32;97727.53;;;7.22;100.00
77574;BME280;66710;48.868;9.080;2023-11-21T10:03:57;97731.13;;;7.33;100.00
77574;BME280;66710;48.868;9.080;2023-11-21T10:06:25;97725.72;;;7.33;100.00
77574;BME280;66710;48.868;9.080;2023-11-21T10:08:53;97725.75;;;7.38;100.00
77574;BME280;66710;48.868;9.080;2023-11-21T10:11:19;97730.47;;;7.48;100.00
77574;BME280;66710;48.868;9.080;2023-11-21T10:13:49;97737.50;;;7.49;100.00
77574;BME280;66710;48.868;9.080;2023-11-21T10:16:19;97730.13;;;7.45;100.00
77574;BME280;66710;48.868;9.080;2023-11-21T10:18:48;97731.72;;;7.78;100.00
77574;BME280;66710;48.868;9.080;2023-11-21T10:21:14;97724.75;;;7.87;100.00
77574;BME280;66710;48.868;9.080;2023-11-21T10:23:40;97722.56;;;7.84;100.00
77574;BME280;66710;48.868;9.080;2023-11-21T10:26:06;97733.72;;;7.88;100.00
77574;BME280;66710;48.868;9.080;2023-11-21T10:28:37;97722.13;;;8.03;100.00
77574;BME280;66710;48.868;9.080;2023-11-21T10:31:06;97724.91;;;8.18;100.00
77574;BME280;66710;48.868;9.080;2023-11-21T10:33:32;97725.72;;;8.19;100.00
77574;BME280;66710;48.868;9.080;2023-11-21T10:35:57;97722.94;;;8.03;100.00
77574;BME280;66710;48.868;9.080;2023-11-21T10:38:23;97720.75;;;8.00;100.00
77574;BME280;66710;48.868;9.080;2023-11-21T10:40:50;97730.72;;;7.89;100.00
77574;BME280;66710;48.868;9.080;2023-11-21T10:43:16;97735.13;;;8.01;100.00
77574;BME280;66710;48.868;9.080;2023-11-21T10:45:42;97743.41;;;8.26;100.00
77574;BME280;66710;48.868;9.080;2023-11-21T10:48:13;97734.94;;;8.12;100.00
77574;BME280;66710;48.868;9.080;2023-11-21T10:50:43;97728.81;;;8.38;100.00
77574;BME280;66710;48.868;9.080;2023-11-21T10:53:09;97727.97;;;8.32;100.00
77574;BME280;66710;48.868;9.080;2023-11-21T10:55:34;97728.22;;;8.30;100.00
77574;BME280;66710;48.868;9.080;2023-11-21T10:58:04;97736.47;;;8.46;100.00
77574;BME280;66710;48.868;9.080;2023-11-21T11:00:32;97725.63;;;8.46;100.00
77574;BME280;66710;48.868;9.080;2023-11-21T11:02:58;97728.19;;;8.20;100.00
77574;BME280;66710;48.868;9.080;2023-11-21T11:05:26;97733.91;;;8.97;100.00
77574;BME280;66710;48.868;9.080;2023-11-21T11:07:58;97732.25;;;8.91;100.00
77574;BME280;66710;48.868;9.080;2023-11-21T11:10:27;97727.34;;;8.78;100.00
77574;BME280;66710;48.868;9.080;2023-11-21T11:12:54;97733.81;;;8.66;100.00
77574;BME280;66710;48.868;9.080;2023-11-21T11:15:21;97732.72;;;8.57;100.00
77574;BME280;66710;48.868;9.080;2023-11-21T11:17:46;97726.25;;;8.68;100.00
77574;BME280;66710;48.868;9.080;2023-11-21T11:20:14;97732.81;;;8.93;100.00
77574;BME280;66710;48.868;9.080;2023-11-21T11:28:47;97729.59;;;9.53;100.00
77574;BME280;66710;48.868;9.080;2023-11-21T11:31:50;97737.47;;;9.85;100.00
77574;BME280;66710;48.868;9.080;2023-11-21T11:34:29;97739.13;;;9.60;100.00
77574;BME280;66710;48.868;9.080;2023-11-21T11:39:34;97738.25;;;9.08;100.00
77574;BME280;66710;48.868;9.080;2023-11-21T11:42:03;97741.78;;;8.88;100.00
77574;BME280;66710;48.868;9.080;2023-11-21T11:50:09;97750.59;;;8.48;100.00
77574;BME280;66710;48.868;9.080;2023-11-21T11:52:50;97746.81;;;8.49;100.00
77574;BME280;66710;48.868;9.080;2023-11-21T11:55:21;97750.06;;;8.51;100.00
77574;BME280;66710;48.868;9.080;2023-11-21T11:57:49;97746.81;;;8.49;100.00
77574;BME280;66710;48.868;9.080;2023-11-21T12:02:49;97739.78;;;8.58;100.00
77574;BME280;66710;48.868;9.080;2023-11-21T12:05:20;97735.94;;;8.54;100.00
77574;BME280;66710;48.868;9.080;2023-11-21T12:07:54;97743.38;;;8.74;100.00
77574;BME280;66710;48.868;9.080;2023-11-21T12:10:40;97738.25;;;8.88;100.00
77574;BME280;66710;48.868;9.080;2023-11-21T12:13:10;97754.28;;;8.89;100.00
77574;BME280;66710;48.868;9.080;2023-11-21T12:15:37;97749.94;;;8.94;100.00
77574;BME280;66710;48.868;9.080;2023-11-21T12:18:03;97760.28;;;8.97;100.00
77574;BME280;66710;48.868;9.080;2023-11-21T12:20:29;97752.06;;;8.76;100.00
77574;BME280;66710;48.868;9.080;2023-11-21T12:22:57;97752.13;;;9.07;100.00
77574;BME280;66710;48.868;9.080;2023-11-21T12:25:28;97753.25;;;9.21;100.00
77574;BME280;66710;48.868;9.080;2023-11-21T12:27:58;97753.81;;;9.59;100.00
77574;BME280;66710;48.868;9.080;2023-11-21T12:30:25;97750.78;;;9.97;100.00
77574;BME280;66710;48.868;9.080;2023-11-21T12:32:55;97757.06;;;9.92;100.00
77574;BME280;66710;48.868;9.080;2023-11-21T12:35:22;97753.53;;;9.61;100.00
77574;BME280;66710;48.868;9.080;2023-11-21T12:37:51;97752.72;;;9.45;100.00
77574;BME280;66710;48.868;9.080;2023-11-21T12:40:17;97746.16;;;9.15;100.00
77574;BME280;66710;48.868;9.080;2023-11-21T12:42:44;97740.25;;;8.45;100.00
77574;BME280;66710;48.868;9.080;2023-11-21T12:47:47;97773.81;;;8.28;100.00
77574;BME280;66710;48.868;9.080;2023-11-21T12:50:14;97773.31;;;7.94;100.00
77574;BME280;66710;48.868;9.080;2023-11-21T12:52:44;97779.00;;;7.87;100.00
77574;BME280;66710;48.868;9.080;2023-11-21T12:55:15;97781.03;;;7.70;100.00
77574;BME280;66710;48.868;9.080;2023-11-21T12:57:44;97778.88;;;7.72;100.00
77574;BME280;66710;48.868;9.080;2023-11-21T13:00:15;97777.16;;;7.60;100.00
77574;BME280;66710;48.868;9.080;2023-11-21T13:02:52;97783.72;;;7.65;100.00
77574;BME280;66710;48.868;9.080;2023-11-21T13:05:31;97789.38;;;7.63;100.00
77574;BME280;66710;48.868;9.080;2023-11-21T13:07:59;97785.88;;;7.63;100.00
77574;BME280;66710;48.868;9.080;2023-11-21T13:10:28;97792.13;;;7.68;100.00
77574;BME280;66710;48.868;9.080;2023-11-21T13:13:00;97790.50;;;7.67;100.00
77574;BME280;66710;48.868;9.080;2023-11-21T13:15:27;97801.34;;;7.67;100.00
77574;BME280;66710;48.868;9.080;2023-11-21T13:17:53;97802.22;;;7.78;100.00